Time;durP1;ratioP1;P1;durP2;ratioP2;P2;SDS_P1;SDS_P2;PMS_P1;PMS_P2;Temp;Humidity;BMP_temperature;BMP_pressure;BME280_temperature;BME280_humidity;BME280_pressure;Samples;Min_cycle;Max_cycle;Signal;HPM_P1;HPM_P2
2021/09/16 00:00:00;;;;;;;1.63;0.55;;;18.70;82.50;;;;;;5151505;27;20033;-73
2021/09/16 00:02:25;;;;;;;1.80;0.65;;;18.60;82.50;;;;;;5154830;27;20026;-72
2021/09/16 00:04:51;;;;;;;0.52;0.30;;;18.70;82.70;;;;;;5151193;27;20041;-73
2021/09/16 00:07:16;;;;;;;1.00;0.40;;;18.70;82.80;;;;;;5152923;27;20582;-73
2021/09/16 00:09:42;;;;;;;0.32;0.32;;;18.60;82.90;;;;;;5139949;27;20034;-72
2021/09/16 00:12:08;;;;;;;6.28;1.38;;;18.50;83.00;;;;;;5154212;27;20023;-73
2021/09/16 00:14:34;;;;;;;0.63;0.55;;;18.50;83.10;;;;;;5152754;27;20390;-73
2021/09/16 00:16:59;;;;;;;1.48;0.80;;;18.50;83.20;;;;;;5154578;27;20184;-73
2021/09/16 00:19:25;;;;;;;0.30;0.30;;;18.50;83.30;;;;;;5153255;27;20034;-73
2021/09/16 00:21:50;;;;;;;0.40;0.35;;;18.40;83.20;;;;;;5152936;27;20427;-73
2021/09/16 00:24:16;;;;;;;1.95;0.90;;;18.40;83.30;;;;;;5153681;27;20042;-73
2021/09/16 00:26:42;;;;;;;0.77;0.77;;;18.40;83.30;;;;;;5151138;27;20121;-73
2021/09/16 00:29:09;;;;;;;0.40;0.40;;;18.40;83.40;;;;;;5154157;27;20102;-73
2021/09/16 00:31:36;;;;;;;1.10;1.00;;;18.40;83.50;;;;;;5153038;27;20041;-73
2021/09/16 00:34:02;;;;;;;0.35;0.35;;;18.30;83.50;;;;;;5152746;27;20059;-73
2021/09/16 00:36:27;;;;;;;1.88;0.68;;;18.30;83.70;;;;;;5153241;27;20093;-73
2021/09/16 00:38:53;;;;;;;0.90;0.60;;;18.30;83.70;;;;;;5151796;27;20031;-73
2021/09/16 00:41:18;;;;;;;2.53;0.55;;;18.30;83.70;;;;;;5152308;27;20031;-73
2021/09/16 00:43:44;;;;;;;0.57;0.40;;;18.30;83.80;;;;;;5152125;27;20027;-73
2021/09/16 00:46:10;;;;;;;2.00;0.82;;;18.20;83.70;;;;;;5153968;27;20470;-73
2021/09/16 00:48:35;;;;;;;2.17;0.88;;;18.20;83.80;;;;;;5144192;27;20106;-73
2021/09/16 00:51:01;;;;;;;2.40;0.90;;;18.20;83.90;;;;;;5152562;27;20022;-73
2021/09/16 00:53:28;;;;;;;7.13;0.57;;;18.20;83.90;;;;;;5153960;27;20027;-73
2021/09/16 00:55:56;;;;;;;1.10;0.57;;;18.20;83.90;;;;;;5151596;27;20037;-73
2021/09/16 00:58:24;;;;;;;1.50;0.90;;;18.20;83.90;;;;;;5144380;27;20023;-73
2021/09/16 01:00:50;;;;;;;3.10;0.93;;;18.20;83.80;;;;;;5150703;27;20485;-73
2021/09/16 01:03:16;;;;;;;2.17;0.65;;;18.20;83.90;;;;;;5140807;27;20070;-73
2021/09/16 01:05:41;;;;;;;2.65;0.98;;;18.20;83.90;;;;;;5152795;27;20042;-73
2021/09/16 01:08:07;;;;;;;1.27;0.55;;;18.20;84.00;;;;;;5152882;27;20034;-73
2021/09/16 01:10:33;;;;;;;2.08;0.82;;;18.20;84.50;;;;;;5148513;27;20030;-73
2021/09/16 01:12:59;;;;;;;1.50;0.47;;;18.20;84.40;;;;;;5149824;27;20358;-73
2021/09/16 01:15:25;;;;;;;7.25;1.30;;;18.10;84.40;;;;;;5149534;27;20034;-73
2021/09/16 01:17:50;;;;;;;0.32;0.32;;;18.10;84.50;;;;;;5153320;27;20038;-73
2021/09/16 01:20:16;;;;;;;0.43;0.43;;;18.10;84.50;;;;;;5152229;27;20460;-73
2021/09/16 01:22:42;;;;;;;6.43;1.00;;;18.10;84.80;;;;;;5151994;27;20061;-73
2021/09/16 01:25:08;;;;;;;0.38;0.38;;;18.10;85.10;;;;;;5152081;27;20035;-73
2021/09/16 01:27:34;;;;;;;5.03;1.20;;;18.10;85.10;;;;;;5152636;27;20035;-73
2021/09/16 01:30:03;;;;;;;0.45;0.45;;;18.10;85.30;;;;;;5148004;27;20057;-73
2021/09/16 01:32:29;;;;;;;0.40;0.40;;;18.10;85.40;;;;;;5142818;27;20019;-73
2021/09/16 01:34:55;;;;;;;1.55;0.50;;;18.00;85.40;;;;;;5151942;27;20115;-73
2021/09/16 01:37:20;;;;;;;0.30;0.30;;;18.00;85.60;;;;;;5151502;27;20022;-73
2021/09/16 01:39:49;;;;;;;2.60;1.13;;;18.00;85.80;;;;;;5151930;27;20492;-73
2021/09/16 01:42:14;;;;;;;1.67;0.82;;;17.90;85.90;;;;;;5151623;27;20045;-73
2021/09/16 01:44:40;;;;;;;2.28;0.52;;;18.00;86.10;;;;;;5151767;27;20477;-73
2021/09/16 01:47:06;;;;;;;7.78;0.93;;;18.00;86.20;;;;;;5148233;27;20355;-73
2021/09/16 01:49:32;;;;;;;0.32;0.32;;;18.00;86.50;;;;;;5133624;27;20077;-73
2021/09/16 01:51:58;;;;;;;0.35;0.35;;;18.00;86.60;;;;;;5133225;27;20157;-73
2021/09/16 01:54:23;;;;;;;1.85;0.50;;;18.00;86.90;;;;;;5154347;27;20458;-73
2021/09/16 01:56:49;;;;;;;1.50;0.47;;;18.00;87.00;;;;;;5149956;27;20030;-73
2021/09/16 01:59:15;;;;;;;8.30;1.05;;;18.00;87.10;;;;;;5156206;27;20046;-73
2021/09/16 02:01:40;;;;;;;3.00;1.15;;;17.90;87.30;;;;;;5154890;27;20030;-73
2021/09/16 02:04:06;;;;;;;2.83;0.82;;;18.00;87.60;;;;;;5155726;27;20030;-73
2021/09/16 02:06:32;;;;;;;2.63;0.88;;;18.00;87.70;;;;;;5153233;27;20106;-73
2021/09/16 02:08:57;;;;;;;0.65;0.52;;;17.90;87.90;;;;;;5156727;27;20026;-73
2021/09/16 02:11:23;;;;;;;0.73;0.52;;;17.90;87.90;;;;;;5155286;27;20076;-73
2021/09/16 02:13:48;;;;;;;1.63;0.80;;;17.90;88.10;;;;;;5154865;27;20018;-73
2021/09/16 02:16:14;;;;;;;0.82;0.73;;;17.90;88.30;;;;;;5156621;27;20473;-73
2021/09/16 02:18:40;;;;;;;3.38;0.88;;;17.90;88.50;;;;;;5153894;27;20062;-73
2021/09/16 02:21:05;;;;;;;1.40;0.63;;;17.90;88.60;;;;;;5151853;27;20074;-73
2021/09/16 02:23:31;;;;;;;1.42;0.75;;;18.00;88.70;;;;;;5144856;27;20497;-73
2021/09/16 02:25:57;;;;;;;2.90;1.00;;;18.00;88.70;;;;;;5155195;27;20394;-73
2021/09/16 02:28:23;;;;;;;1.70;0.98;;;18.00;88.70;;;;;;5148365;27;20580;-73
2021/09/16 02:30:48;;;;;;;3.25;0.75;;;18.00;88.80;;;;;;5150373;27;20393;-73
2021/09/16 02:33:14;;;;;;;2.53;0.93;;;18.00;88.80;;;;;;5155164;27;20401;-73
2021/09/16 02:35:40;;;;;;;3.08;1.33;;;17.90;88.80;;;;;;5155500;27;20033;-73
2021/09/16 02:38:05;;;;;;;3.33;1.05;;;18.00;88.90;;;;;;5154340;27;20038;-73
2021/09/16 02:40:31;;;;;;;4.15;1.38;;;18.00;89.10;;;;;;5155646;27;20019;-73
2021/09/16 02:42:57;;;;;;;5.57;1.60;;;18.10;89.00;;;;;;5154637;27;20055;-73
2021/09/16 02:45:22;;;;;;;2.17;1.05;;;18.10;89.30;;;;;;5156141;27;20397;-73
2021/09/16 02:47:48;;;;;;;3.38;1.00;;;18.10;88.30;;;;;;5155006;27;20050;-72
2021/09/16 02:50:14;;;;;;;2.42;1.10;;;18.10;88.10;;;;;;5153460;27;20038;-73
2021/09/16 02:52:40;;;;;;;4.95;1.58;;;18.20;88.00;;;;;;5150798;27;20030;-73
2021/09/16 02:55:06;;;;;;;0.47;0.40;;;18.20;88.30;;;;;;5147816;27;20370;-74
2021/09/16 02:57:32;;;;;;;1.35;0.95;;;18.20;88.00;;;;;;5148611;27;20026;-74
2021/09/16 02:59:57;;;;;;;2.80;1.15;;;18.20;88.20;;;;;;5153850;27;20027;-73
2021/09/16 03:02:23;;;;;;;7.20;1.48;;;18.20;88.20;;;;;;5152984;27;20083;-73
2021/09/16 03:04:49;;;;;;;4.50;1.38;;;18.20;88.20;;;;;;5154055;27;20035;-73
2021/09/16 03:07:14;;;;;;;6.38;1.05;;;18.20;88.40;;;;;;5152440;27;20522;-73
2021/09/16 03:09:40;;;;;;;3.15;1.38;;;18.20;88.20;;;;;;5151853;27;20058;-73
2021/09/16 03:12:06;;;;;;;2.45;1.20;;;18.20;88.40;;;;;;5154062;27;20026;-74
2021/09/16 03:14:31;;;;;;;3.17;1.38;;;18.20;88.60;;;;;;5154780;27;20068;-74
2021/09/16 03:16:57;;;;;;;5.60;1.30;;;18.20;88.60;;;;;;5153067;27;20027;-73
2021/09/16 03:19:23;;;;;;;6.68;1.67;;;18.20;88.70;;;;;;5153404;27;20031;-73
2021/09/16 03:21:48;;;;;;;4.05;1.75;;;18.20;88.60;;;;;;5153586;27;20085;-73
2021/09/16 03:24:14;;;;;;;6.28;2.03;;;18.20;88.70;;;;;;5153016;27;20118;-73
2021/09/16 03:26:39;;;;;;;3.88;1.50;;;18.30;88.70;;;;;;5153237;27;20056;-69
2021/09/16 03:29:05;;;;;;;4.60;1.75;;;18.20;88.60;;;;;;5155218;27;20041;-75
2021/09/16 03:31:31;;;;;;;5.22;1.60;;;18.30;88.60;;;;;;5153431;27;20561;-73
2021/09/16 03:33:56;;;;;;;3.72;1.60;;;18.30;88.50;;;;;;5154911;27;20106;-72
2021/09/16 03:36:22;;;;;;;3.03;1.55;;;18.30;88.40;;;;;;5154392;27;20027;-73
2021/09/16 03:38:48;;;;;;;7.75;1.80;;;18.30;88.40;;;;;;5151725;27;20015;-73
2021/09/16 03:41:13;;;;;;;7.60;2.00;;;18.30;88.30;;;;;;5154368;27;20458;-72
2021/09/16 03:43:39;;;;;;;7.25;2.00;;;18.40;88.40;;;;;;5134477;27;20022;-73
2021/09/16 03:46:04;;;;;;;3.22;1.80;;;18.40;88.40;;;;;;5153590;27;20038;-72
2021/09/16 03:48:30;;;;;;;5.18;1.95;;;18.40;88.20;;;;;;5153714;27;20663;-73
2021/09/16 03:50:56;;;;;;;5.47;2.45;;;18.40;88.10;;;;;;5152025;27;20049;-73
2021/09/16 03:53:21;;;;;;;10.55;2.55;;;18.40;88.10;;;;;;5153548;27;20019;-73
2021/09/16 03:55:47;;;;;;;7.80;2.90;;;18.40;88.20;;;;;;5152033;27;20436;-72
2021/09/16 03:58:13;;;;;;;8.95;2.75;;;18.50;88.70;;;;;;5153138;27;20461;-73
2021/09/16 04:00:38;;;;;;;15.00;3.55;;;18.50;88.30;;;;;;5152892;27;20027;-73
2021/09/16 04:03:09;;;;;;;15.90;3.20;;;18.50;88.50;;;;;;5154501;27;20124;-73
2021/09/16 04:05:35;;;;;;;9.40;3.13;;;18.50;88.80;;;;;;5148942;27;20039;-73
2021/09/16 04:08:02;;;;;;;12.98;3.10;;;18.60;89.00;;;;;;5154345;27;20031;-73
2021/09/16 04:10:27;;;;;;;7.63;2.55;;;18.60;88.90;;;;;;5152142;27;20061;-73
2021/09/16 04:12:53;;;;;;;8.68;2.80;;;18.60;88.30;;;;;;5153881;27;20050;-73
2021/09/16 04:15:19;;;;;;;9.25;2.78;;;18.60;89.10;;;;;;5153362;27;20015;-73
2021/09/16 04:17:44;;;;;;;10.48;2.63;;;18.60;89.00;;;;;;5152614;27;20430;-72
2021/09/16 04:20:10;;;;;;;8.30;3.22;;;18.60;88.40;;;;;;5152387;27;20431;-73
2021/09/16 04:22:36;;;;;;;13.85;3.03;;;18.70;88.40;;;;;;5152158;27;20099;-73
2021/09/16 04:25:02;;;;;;;9.85;3.30;;;18.70;88.60;;;;;;5153968;27;20050;-73
2021/09/16 04:27:28;;;;;;;13.77;3.55;;;18.70;88.80;;;;;;5153439;27;20023;-73
2021/09/16 04:29:53;;;;;;;10.98;2.47;;;18.70;88.80;;;;;;5151462;27;20046;-73
2021/09/16 04:32:19;;;;;;;12.68;3.13;;;18.70;88.20;;;;;;5151950;27;20025;-73
2021/09/16 04:34:44;;;;;;;6.15;2.70;;;18.80;88.00;;;;;;5151275;27;20065;-73
2021/09/16 04:37:10;;;;;;;15.15;2.45;;;18.70;87.90;;;;;;5152727;27;20061;-73
2021/09/16 04:39:35;;;;;;;9.20;2.55;;;18.80;87.70;;;;;;5151842;27;20023;-75
2021/09/16 04:42:01;;;;;;;10.57;3.13;;;18.70;87.20;;;;;;5152805;27;20025;-76
2021/09/16 04:44:27;;;;;;;8.15;3.20;;;18.70;87.90;;;;;;5153193;27;20034;-73
2021/09/16 04:46:53;;;;;;;6.97;2.42;;;18.70;88.80;;;;;;5150848;27;20040;-73
2021/09/16 04:49:18;;;;;;;8.93;3.00;;;18.80;88.00;;;;;;5151139;27;20491;-74
2021/09/16 04:51:44;;;;;;;7.45;2.55;;;18.80;88.10;;;;;;5152485;27;20029;-74
2021/09/16 04:54:11;;;;;;;8.10;2.53;;;18.80;87.80;;;;;;5150269;27;20026;-74
2021/09/16 04:56:36;;;;;;;7.60;2.80;;;18.80;87.50;;;;;;5151754;27;20030;-74
2021/09/16 04:59:02;;;;;;;13.48;3.10;;;18.80;86.80;;;;;;5151787;27;20029;-74
2021/09/16 05:01:28;;;;;;;12.13;3.25;;;18.80;86.40;;;;;;5147814;27;20027;-79
2021/09/16 05:03:53;;;;;;;11.63;4.25;;;18.70;86.40;;;;;;5151810;27;20023;-79
2021/09/16 05:06:19;;;;;;;8.35;2.65;;;18.70;87.30;;;;;;5153339;27;20034;-78
2021/09/16 05:08:45;;;;;;;8.65;2.80;;;18.80;87.60;;;;;;5151573;27;20026;-75
2021/09/16 05:11:12;;;;;;;11.10;3.08;;;18.70;87.40;;;;;;5153056;27;20034;-74
2021/09/16 05:13:38;;;;;;;8.07;2.47;;;18.70;87.20;;;;;;5151457;27;20481;-74
2021/09/16 05:16:04;;;;;;;6.80;2.10;;;18.70;87.30;;;;;;5152797;27;20019;-75
2021/09/16 05:18:29;;;;;;;8.52;2.65;;;18.70;87.10;;;;;;5153399;27;20023;-74
2021/09/16 05:20:55;;;;;;;6.65;2.35;;;18.70;87.20;;;;;;5149478;27;20026;-78
2021/09/16 05:23:21;;;;;;;12.68;2.72;;;18.70;87.10;;;;;;5150430;27;20031;-83
2021/09/16 05:25:46;;;;;;;9.05;2.92;;;18.80;87.00;;;;;;5149369;27;20031;-83
2021/09/16 05:28:12;;;;;;;8.52;2.75;;;18.70;86.90;;;;;;5149326;27;20022;-82
2021/09/16 05:30:37;;;;;;;8.25;2.72;;;18.80;87.10;;;;;;5152394;27;20033;-83
2021/09/16 05:33:08;;;;;;;7.30;2.28;;;18.80;86.90;;;;;;5153376;27;20071;-82
2021/09/16 05:35:35;;;;;;;7.18;3.20;;;18.70;87.10;;;;;;5154792;27;20031;-83
2021/09/16 05:38:01;;;;;;;7.53;3.00;;;18.80;87.20;;;;;;5153013;27;20122;-77
2021/09/16 05:40:26;;;;;;;9.95;2.60;;;18.70;87.40;;;;;;5154918;27;20105;-82
2021/09/16 05:42:52;;;;;;;18.38;2.85;;;18.80;86.80;;;;;;5154607;27;20037;-76
2021/09/16 05:45:18;;;;;;;8.52;2.83;;;18.80;86.80;;;;;;5155469;27;20070;-75
2021/09/16 05:47:44;;;;;;;11.35;2.63;;;18.80;86.40;;;;;;5157177;27;20022;-75
2021/09/16 05:50:10;;;;;;;11.35;2.42;;;18.70;86.30;;;;;;5156046;27;20420;-75
2021/09/16 05:52:35;;;;;;;7.00;2.40;;;18.70;86.40;;;;;;5154912;27;20018;-75
2021/09/16 05:55:01;;;;;;;11.77;2.50;;;18.70;86.20;;;;;;5154967;27;20485;-75
2021/09/16 05:57:27;;;;;;;7.75;2.22;;;18.70;86.30;;;;;;5156099;27;20030;-75
2021/09/16 05:59:52;;;;;;;12.02;2.58;;;18.60;86.40;;;;;;5154733;27;20030;-75
2021/09/16 06:02:19;;;;;;;3.97;2.20;;;18.60;86.30;;;;;;5148818;27;20492;-75
2021/09/16 06:04:45;;;;;;;8.65;2.25;;;18.60;86.40;;;;;;5154083;27;20046;-75
2021/09/16 06:07:10;;;;;;;8.43;2.58;;;18.60;86.60;;;;;;5154170;27;20106;-75
2021/09/16 06:09:36;;;;;;;6.80;2.08;;;18.60;86.90;;;;;;5156600;27;20076;-74
2021/09/16 06:12:03;;;;;;;6.18;2.28;;;18.50;87.00;;;;;;5154704;27;20014;-74
2021/09/16 06:14:30;;;;;;;15.88;2.47;;;18.50;87.10;;;;;;5156240;27;20026;-74
2021/09/16 06:16:56;;;;;;;6.93;2.05;;;18.50;87.90;;;;;;5155930;27;20083;-75
2021/09/16 06:19:21;;;;;;;5.03;1.77;;;18.50;87.10;;;;;;5154734;27;20018;-75
2021/09/16 06:21:47;;;;;;;2.00;1.45;;;18.50;87.20;;;;;;5155381;27;20043;-78
2021/09/16 06:24:13;;;;;;;7.25;2.17;;;18.50;87.10;;;;;;5141494;27;20035;-74
2021/09/16 06:26:38;;;;;;;6.82;2.10;;;18.50;87.50;;;;;;5141904;27;20043;-74
2021/09/16 06:29:04;;;;;;;6.57;2.13;;;18.50;87.60;;;;;;5155298;27;20023;-74
2021/09/16 06:31:29;;;;;;;6.93;2.25;;;18.60;87.90;;;;;;5155119;27;20103;-74
2021/09/16 06:33:55;;;;;;;7.90;2.60;;;18.60;88.50;;;;;;5154973;27;20043;-74
2021/09/16 06:36:21;;;;;;;9.60;2.78;;;18.60;88.50;;;;;;5154545;27;20026;-74
2021/09/16 06:38:46;;;;;;;5.88;2.17;;;18.70;88.30;;;;;;5155234;27;20059;-74
2021/09/16 06:41:12;;;;;;;5.75;1.90;;;18.70;87.90;;;;;;5152073;27;20072;-74
2021/09/16 06:43:37;;;;;;;8.30;2.30;;;18.70;87.60;;;;;;5150340;27;20045;-74
2021/09/16 06:46:03;;;;;;;7.22;1.85;;;18.70;87.30;;;;;;5153215;27;20035;-74
2021/09/16 06:48:29;;;;;;;4.75;1.95;;;18.80;87.10;;;;;;5150822;27;20110;-74
2021/09/16 06:50:56;;;;;;;5.35;1.90;;;18.80;87.00;;;;;;5153638;27;20121;-74
2021/09/16 06:53:22;;;;;;;4.55;1.73;;;18.70;87.10;;;;;;5153489;27;20541;-74
2021/09/16 06:55:48;;;;;;;10.98;1.63;;;18.70;87.10;;;;;;5153654;27;20118;-75
2021/09/16 06:58:14;;;;;;;5.38;2.15;;;18.70;87.30;;;;;;5155677;27;20035;-74
2021/09/16 07:00:39;;;;;;;4.30;1.60;;;18.70;87.50;;;;;;5153487;27;20043;-76
2021/09/16 07:03:05;;;;;;;9.82;2.60;;;18.80;87.80;;;;;;5155878;27;20030;-73
2021/09/16 07:05:31;;;;;;;6.68;2.35;;;18.80;87.70;;;;;;5154725;27;20442;-73
2021/09/16 07:07:56;;;;;;;10.93;1.83;;;18.80;87.50;;;;;;5153593;27;20030;-73
2021/09/16 07:10:22;;;;;;;5.43;1.63;;;18.70;87.40;;;;;;5153063;27;20033;-73
2021/09/16 07:12:47;;;;;;;8.07;2.58;;;18.80;87.40;;;;;;5155093;27;20027;-73
2021/09/16 07:15:13;;;;;;;8.55;1.17;;;18.80;87.50;;;;;;5153973;27;20036;-73
2021/09/16 07:17:39;;;;;;;6.55;2.20;;;18.80;87.60;;;;;;5151207;27;20026;-73
2021/09/16 07:20:05;;;;;;;9.05;1.63;;;18.80;88.00;;;;;;5152670;27;20023;-73
2021/09/16 07:22:31;;;;;;;7.85;1.48;;;18.70;87.90;;;;;;5150286;27;20134;-73
2021/09/16 07:24:57;;;;;;;1.90;0.85;;;18.70;88.20;;;;;;5153133;27;20125;-73
2021/09/16 07:27:22;;;;;;;6.38;1.50;;;18.70;88.30;;;;;;5152192;27;20053;-73
2021/09/16 07:29:48;;;;;;;4.03;0.88;;;18.70;88.70;;;;;;5149673;27;20022;-72
2021/09/16 07:32:14;;;;;;;2.38;0.77;;;18.70;88.80;;;;;;5155010;27;20015;-73
2021/09/16 07:34:40;;;;;;;1.90;0.93;;;18.70;89.20;;;;;;5153534;27;20385;-73
2021/09/16 07:37:06;;;;;;;3.35;1.00;;;18.70;89.50;;;;;;5153447;27;20086;-73
2021/09/16 07:39:31;;;;;;;7.88;1.73;;;18.70;89.80;;;;;;5154049;27;20038;-73
2021/09/16 07:41:57;;;;;;;4.00;1.50;;;18.70;90.00;;;;;;5153935;27;20023;-73
2021/09/16 07:44:23;;;;;;;1.33;0.98;;;18.60;90.20;;;;;;5153063;27;20038;-73
2021/09/16 07:46:48;;;;;;;4.18;2.17;;;18.60;90.40;;;;;;5152364;27;20025;-73
2021/09/16 07:49:14;;;;;;;9.85;1.80;;;18.60;90.50;;;;;;5153781;27;20169;-73
2021/09/16 07:51:40;;;;;;;6.05;1.63;;;18.60;90.50;;;;;;5153602;27;20071;-73
2021/09/16 07:54:05;;;;;;;11.05;2.60;;;18.60;90.40;;;;;;5153516;27;20023;-73
2021/09/16 07:56:31;;;;;;;2.35;1.45;;;18.60;90.50;;;;;;5154636;27;20030;-72
2021/09/16 07:58:57;;;;;;;11.63;2.50;;;18.60;90.40;;;;;;5151223;27;20023;-73
2021/09/16 08:01:22;;;;;;;6.45;2.25;;;18.60;90.50;;;;;;5153045;27;20029;-73
2021/09/16 08:03:48;;;;;;;5.95;2.05;;;18.60;90.40;;;;;;5153683;27;20035;-73
2021/09/16 08:06:14;;;;;;;4.68;1.98;;;18.70;90.40;;;;;;5154060;27;20034;-73
2021/09/16 08:08:39;;;;;;;7.88;1.88;;;18.70;90.50;;;;;;5154411;27;20035;-73
2021/09/16 08:11:05;;;;;;;10.65;2.00;;;18.80;90.30;;;;;;5152779;27;20031;-72
2021/09/16 08:13:31;;;;;;;13.50;1.88;;;18.90;90.10;;;;;;5154413;27;20030;-73
2021/09/16 08:15:57;;;;;;;9.55;2.05;;;18.90;89.70;;;;;;5151472;27;20015;-73
2021/09/16 08:18:23;;;;;;;2.95;1.13;;;18.90;89.30;;;;;;5142201;27;20382;-73
2021/09/16 08:20:50;;;;;;;9.57;2.08;;;19.00;89.00;;;;;;5153714;27;20029;-73
2021/09/16 08:23:17;;;;;;;6.47;2.13;;;18.90;89.10;;;;;;5153323;27;20051;-73
2021/09/16 08:25:43;;;;;;;8.73;1.38;;;19.00;89.10;;;;;;5152773;27;20466;-73
2021/09/16 08:28:09;;;;;;;4.93;1.08;;;18.90;89.00;;;;;;5150919;27;20034;-73
2021/09/16 08:30:35;;;;;;;4.57;1.30;;;18.90;89.30;;;;;;5153923;27;20031;-73
2021/09/16 08:33:01;;;;;;;3.83;1.40;;;18.90;89.60;;;;;;5152517;27;20071;-72
2021/09/16 08:35:27;;;;;;;5.78;1.25;;;18.90;89.80;;;;;;5153019;27;20023;-73
2021/09/16 08:37:52;;;;;;;2.13;0.93;;;19.00;90.00;;;;;;5152608;27;20026;-73
2021/09/16 08:40:19;;;;;;;12.18;1.60;;;18.90;90.00;;;;;;5150522;27;20028;-73
2021/09/16 08:42:45;;;;;;;4.38;1.67;;;18.90;90.00;;;;;;5152989;27;20039;-72
2021/09/16 08:45:14;;;;;;;8.02;1.83;;;18.90;90.10;;;;;;5151547;27;20117;-73
2021/09/16 08:47:41;;;;;;;10.25;2.03;;;18.90;90.10;;;;;;5144133;27;20405;-73
2021/09/16 08:50:09;;;;;;;4.03;1.35;;;18.90;90.10;;;;;;5152459;27;20019;-73
2021/09/16 08:52:37;;;;;;;10.35;2.22;;;18.90;90.10;;;;;;5151877;27;20109;-73
2021/09/16 08:55:11;;;;;;;7.82;2.00;;;18.90;90.20;;;;;;5151257;27;20098;-73
2021/09/16 08:57:39;;;;;;;7.18;1.80;;;18.90;90.20;;;;;;5150239;27;20030;-73
2021/09/16 09:00:08;;;;;;;15.23;2.13;;;18.90;90.20;;;;;;5151576;27;20500;-77
2021/09/16 09:02:34;;;;;;;4.25;1.08;;;18.90;90.20;;;;;;5151885;27;20027;-71
2021/09/16 09:05:02;;;;;;;11.13;1.83;;;19.00;90.10;;;;;;5154699;27;20046;-72
2021/09/16 09:07:42;;;;;;;1.30;0.70;;;19.00;90.20;;;;;;5155645;27;20033;-71
2021/09/16 09:10:11;;;;;;;7.38;2.03;;;19.00;90.10;;;;;;5155966;27;20019;-75
2021/09/16 09:12:38;;;;;;;9.43;2.10;;;19.10;90.10;;;;;;5153991;27;20038;-75
2021/09/16 09:15:10;;;;;;;9.30;2.35;;;19.10;90.00;;;;;;5156547;27;20018;-71
2021/09/16 09:17:35;;;;;;;5.72;1.58;;;19.20;89.90;;;;;;5157430;27;20102;-78
2021/09/16 09:20:10;;;;;;;6.75;1.88;;;19.20;89.50;;;;;;5156047;27;20058;-76
2021/09/16 09:22:39;;;;;;;5.03;1.52;;;19.20;89.10;;;;;;5140837;27;20062;-72
2021/09/16 09:25:12;;;;;;;4.43;1.58;;;19.20;89.00;;;;;;5157037;27;20133;-72
2021/09/16 09:27:52;;;;;;;5.38;1.30;;;19.30;88.90;;;;;;5156854;27;20414;-76
2021/09/16 09:30:24;;;;;;;4.47;1.50;;;19.30;89.00;;;;;;5155180;27;20046;-76
2021/09/16 09:32:50;;;;;;;7.10;2.42;;;19.30;89.40;;;;;;5155269;27;20354;-71
2021/09/16 09:35:35;;;;;;;3.50;1.33;;;19.30;89.70;;;;;;5155801;27;20038;-72
2021/09/16 09:38:17;;;;;;;5.45;1.27;;;19.30;89.30;;;;;;5154803;27;20035;-72
2021/09/16 09:40:45;;;;;;;6.20;1.90;;;19.30;88.90;;;;;;5145264;27;20088;-72
2021/09/16 09:43:21;;;;;;;4.93;1.73;;;19.30;88.90;;;;;;5154239;27;20026;-74
2021/09/16 09:45:56;;;;;;;5.88;1.60;;;19.30;88.90;;;;;;5157011;27;20046;-73
2021/09/16 09:48:21;;;;;;;5.82;1.85;;;19.30;88.90;;;;;;5154903;27;20027;-72
2021/09/16 09:50:51;;;;;;;5.03;1.13;;;19.30;88.70;;;;;;5155224;27;20045;-73
2021/09/16 09:53:17;;;;;;;4.47;1.58;;;19.30;88.60;;;;;;5155431;27;20030;-73
2021/09/16 09:55:43;;;;;;;1.88;1.05;;;19.30;88.70;;;;;;5154493;27;20354;-73
2021/09/16 09:58:08;;;;;;;0.63;0.50;;;19.30;88.60;;;;;;5154776;27;20022;-73
2021/09/16 10:00:35;;;;;;;0.90;0.70;;;19.30;89.10;;;;;;5154662;27;20398;-73
2021/09/16 10:03:01;;;;;;;1.77;0.63;;;19.20;88.70;;;;;;5156576;27;20094;-73
2021/09/16 10:05:34;;;;;;;0.55;0.55;;;19.20;88.90;;;;;;5154142;27;20084;-73
2021/09/16 10:08:09;;;;;;;;;;;19.20;89.20;;;;;;5156585;27;20030;-73
2021/09/16 10:10:40;;;;;;;0.85;0.77;;;19.10;89.30;;;;;;5155363;27;19907;-74
2021/09/16 10:13:06;;;;;;;2.33;0.88;;;19.10;89.80;;;;;;5155117;27;20103;-72
2021/09/16 10:15:32;;;;;;;2.97;1.25;;;19.00;90.00;;;;;;5153987;27;20471;-72
2021/09/16 10:17:58;;;;;;;0.52;0.52;;;19.00;90.10;;;;;;5155050;27;20033;-72
2021/09/16 10:20:26;;;;;;;3.35;1.38;;;18.90;90.20;;;;;;5155896;27;20287;-72
2021/09/16 10:22:55;;;;;;;0.55;0.55;;;18.90;90.30;;;;;;5153195;27;20047;-72
2021/09/16 10:25:25;;;;;;;3.00;1.27;;;18.80;90.40;;;;;;5154056;27;20549;-72
2021/09/16 10:28:02;;;;;;;1.52;1.20;;;18.90;90.60;;;;;;5150760;27;20067;-72
2021/09/16 10:30:32;;;;;;;3.22;0.90;;;18.90;90.70;;;;;;5154680;27;20034;-72
2021/09/16 10:33:01;;;;;;;1.00;0.80;;;18.80;90.80;;;;;;5154604;27;20480;-72
2021/09/16 10:35:27;;;;;;;1.08;0.73;;;18.80;90.90;;;;;;5154736;27;20384;-72
2021/09/16 10:37:53;;;;;;;1.20;0.85;;;18.80;90.90;;;;;;5154947;27;20416;-72
2021/09/16 10:40:19;;;;;;;5.80;1.38;;;18.80;91.00;;;;;;5153958;27;20083;-72
2021/09/16 10:42:57;;;;;;;1.98;0.75;;;18.80;91.20;;;;;;5155499;27;20296;-72
2021/09/16 10:45:32;;;;;;;4.00;1.40;;;18.80;91.30;;;;;;5154345;27;20055;-72
2021/09/16 10:48:15;;;;;;;3.15;0.95;;;18.80;91.40;;;;;;5153213;27;20027;-72
2021/09/16 10:51:04;;;;;;;1.25;0.90;;;18.90;91.50;;;;;;5154170;27;20031;-72
2021/09/16 10:53:45;;;;;;;6.70;1.92;;;18.90;91.60;;;;;;5150962;27;20382;-72
2021/09/16 10:56:29;;;;;;;6.53;2.22;;;18.90;91.60;;;;;;5152594;27;20393;-72
2021/09/16 10:58:57;;;;;;;8.48;2.08;;;19.00;91.70;;;;;;5153015;27;20478;-72
2021/09/16 11:01:53;;;;;;;5.25;1.70;;;19.10;91.70;;;;;;5152201;27;20027;-72
2021/09/16 11:04:20;;;;;;;0.80;0.68;;;19.20;91.30;;;;;;5153063;27;20489;-72
2021/09/16 11:06:46;;;;;;;4.43;1.38;;;19.20;91.00;;;;;;5154023;27;20023;-72
2021/09/16 11:09:13;;;;;;;3.85;1.70;;;19.30;90.80;;;;;;5154058;27;20485;-72
2021/09/16 11:11:55;;;;;;;13.20;2.35;;;19.30;90.60;;;;;;5154611;27;20078;-72
2021/09/16 11:14:40;;;;;;;13.85;2.00;;;19.40;90.50;;;;;;5152925;27;20508;-72
2021/09/16 11:17:09;;;;;;;2.60;1.48;;;19.50;90.20;;;;;;5153991;27;20042;-72
2021/09/16 11:19:45;;;;;;;1.08;0.30;;;19.60;90.10;;;;;;5153930;27;20038;-72
2021/09/16 11:22:11;;;;;;;4.68;1.58;;;19.60;90.00;;;;;;5153386;27;20482;-72
2021/09/16 11:24:42;;;;;;;0.52;0.43;;;19.60;89.90;;;;;;5153124;27;20467;-72
2021/09/16 11:27:10;;;;;;;3.20;0.82;;;19.60;89.70;;;;;;5153077;27;20074;-72
2021/09/16 11:29:44;;;;;;;1.85;0.98;;;19.60;89.60;;;;;;5153177;27;20035;-72
2021/09/16 11:32:11;;;;;;;9.07;1.45;;;19.60;89.70;;;;;;5153959;27;20026;-72
2021/09/16 11:34:48;;;;;;;2.15;0.77;;;19.60;89.80;;;;;;5154178;27;20058;-73
2021/09/16 11:37:17;;;;;;;3.72;1.42;;;19.60;90.00;;;;;;5151542;27;20389;-72
2021/09/16 11:39:43;;;;;;;1.05;0.95;;;19.50;90.00;;;;;;5152035;27;20411;-72
2021/09/16 11:42:10;;;;;;;1.00;0.82;;;19.60;90.20;;;;;;5152887;27;20036;-72
2021/09/16 11:44:36;;;;;;;2.95;1.00;;;19.50;90.40;;;;;;5153512;27;20117;-72
2021/09/16 11:47:01;;;;;;;7.10;1.33;;;19.50;90.50;;;;;;5153111;27;20148;-72
2021/09/16 11:49:27;;;;;;;5.03;1.67;;;19.50;90.80;;;;;;5153697;27;20026;-72
2021/09/16 11:51:53;;;;;;;5.53;1.55;;;19.60;90.80;;;;;;5152682;27;20101;-73
2021/09/16 11:54:19;;;;;;;2.53;1.02;;;19.60;90.80;;;;;;5152868;27;20026;-72
2021/09/16 11:56:44;;;;;;;6.57;1.05;;;19.60;90.90;;;;;;5152158;27;20022;-72
2021/09/16 11:59:10;;;;;;;5.28;1.27;;;19.60;90.80;;;;;;5153341;27;20019;-72
2021/09/16 12:01:36;;;;;;;1.70;0.68;;;19.60;90.80;;;;;;5152762;27;20405;-72
2021/09/16 12:04:03;;;;;;;10.18;2.10;;;19.70;90.80;;;;;;5152301;27;20071;-72
2021/09/16 12:06:34;;;;;;;5.05;1.60;;;19.80;90.80;;;;;;5153555;27;20043;-72
2021/09/16 12:09:02;;;;;;;2.97;1.42;;;19.80;90.40;;;;;;5152324;27;20037;-72
2021/09/16 12:11:30;;;;;;;6.45;1.75;;;19.80;90.30;;;;;;5150208;27;20098;-72
2021/09/16 12:13:58;;;;;;;3.80;1.48;;;19.80;89.40;;;;;;5152901;27;20418;-72
2021/09/16 12:16:28;;;;;;;4.28;1.70;;;19.90;89.10;;;;;;5154151;27;20042;-69
2021/09/16 12:19:02;;;;;;;10.50;1.65;;;20.00;89.10;;;;;;5150903;27;20014;-72
2021/09/16 12:21:36;;;;;;;1.83;0.90;;;20.00;88.80;;;;;;5151876;27;20045;-72
2021/09/16 12:24:06;;;;;;;5.03;1.33;;;20.10;89.30;;;;;;5149834;27;20027;-72
2021/09/16 12:26:40;;;;;;;9.07;1.60;;;20.10;89.00;;;;;;5151037;27;20099;-72
2021/09/16 12:29:07;;;;;;;1.55;0.70;;;20.10;88.40;;;;;;5149892;27;20117;-72
2021/09/16 12:31:38;;;;;;;4.32;1.50;;;20.20;88.90;;;;;;5151461;27;20374;-72
2021/09/16 12:34:10;;;;;;;3.47;0.95;;;20.20;88.80;;;;;;5148815;27;20533;-72
2021/09/16 12:36:48;;;;;;;7.90;1.73;;;20.30;89.20;;;;;;5153404;27;20037;-76
2021/09/16 12:39:14;;;;;;;4.50;1.17;;;20.30;88.20;;;;;;5150682;27;20035;-71
2021/09/16 12:41:55;;;;;;;6.97;1.40;;;20.40;87.40;;;;;;5152460;27;20033;-71
2021/09/16 12:44:26;;;;;;;2.83;1.23;;;20.40;87.30;;;;;;5152791;27;20027;-71